createdAt,value
2023-04-20T00:00:52.933Z,2.3
2023-04-20T00:01:55.235Z,1.8
2023-04-20T00:02:57.565Z,2.6
2023-04-20T00:03:59.857Z,3.1
2023-04-20T00:05:03.144Z,2.09
2023-04-20T00:06:06.436Z,3.8
2023-04-20T00:07:09.741Z,2.7
2023-04-20T00:08:13.019Z,2.6
2023-04-20T00:09:16.331Z,1.5
2023-04-20T00:10:19.633Z,2
2023-04-20T00:11:22.907Z,1.5
2023-04-20T00:12:26.205Z,1.5
2023-04-20T00:13:29.500Z,1.9
2023-04-20T00:14:32.779Z,1.9
2023-04-20T00:15:36.091Z,2.6
2023-04-20T00:16:39.379Z,1.3
2023-04-20T00:17:41.692Z,1.5
2023-04-20T00:18:44.984Z,1.5
2023-04-20T00:19:48.248Z,1.3
2023-04-20T00:20:51.579Z,1.6
2023-04-20T00:21:54.846Z,1.6
2023-04-20T00:22:58.134Z,1.2
2023-04-20T00:24:01.423Z,1.7
2023-04-20T00:25:03.752Z,1.7
2023-04-20T00:26:06.054Z,1.3
2023-04-20T00:27:08.361Z,2.2
2023-04-20T00:28:10.672Z,1.2
2023-04-20T00:29:14.304Z,1.4
2023-04-20T00:30:17.572Z,1.7
2023-04-20T00:31:20.857Z,1.3
2023-04-20T00:32:24.152Z,1.3
2023-04-20T00:33:27.458Z,1.5
2023-04-20T00:34:30.725Z,1.6
2023-04-20T00:35:34.036Z,2
2023-04-20T00:36:37.332Z,1.1
2023-04-20T00:37:40.622Z,1.3
2023-04-20T00:38:43.911Z,1.3
2023-04-20T00:39:47.199Z,1.4
2023-04-20T00:40:50.473Z,1.3
2023-04-20T00:41:52.805Z,1.4
2023-04-20T00:42:56.090Z,1.4
2023-04-20T00:43:59.411Z,1.3
2023-04-20T00:45:02.677Z,1.3
2023-04-20T00:46:05.967Z,1.2
2023-04-20T00:47:09.249Z,1.4
2023-04-20T00:48:12.551Z,1.2
2023-04-20T00:49:14.860Z,1.3
2023-04-20T00:50:17.169Z,1.3
2023-04-20T00:51:19.480Z,1.6
2023-04-20T00:52:21.783Z,1.4
2023-04-20T00:53:25.082Z,1.3
2023-04-20T00:54:28.381Z,1.1
2023-04-20T00:55:31.664Z,1.4
2023-04-20T00:56:34.985Z,1.5
2023-04-20T00:57:38.271Z,1.2
2023-04-20T00:58:41.537Z,1.3
2023-04-20T00:59:44.832Z,1.2
2023-04-20T01:00:48.114Z,1.3
2023-04-20T01:01:51.439Z,1.3
2023-04-20T01:02:54.711Z,1.4
2023-04-20T01:03:57.990Z,1.3
2023-04-20T01:05:01.303Z,1.2
2023-04-20T01:06:03.600Z,1.3
2023-04-20T01:07:06.879Z,1.2
2023-04-20T01:08:10.190Z,1.2
2023-04-20T01:09:13.463Z,1.4
2023-04-20T01:10:16.770Z,1.2
2023-04-20T01:11:20.066Z,1.3
2023-04-20T01:12:23.346Z,1.8
2023-04-20T01:13:25.664Z,1.1
2023-04-20T01:14:27.962Z,2.09
2023-04-20T01:15:30.291Z,1.2
2023-04-20T01:16:32.597Z,1.1
2023-04-20T01:17:35.879Z,1.2
2023-04-20T01:18:39.181Z,2.09
2023-04-20T01:19:42.466Z,1.3
2023-04-20T01:20:45.755Z,1.3
2023-04-20T01:21:49.040Z,1.2
2023-04-20T01:22:52.346Z,1.1
2023-04-20T01:23:55.671Z,1.1
2023-04-20T01:24:58.924Z,1.4
2023-04-20T01:26:02.213Z,1.2
2023-04-20T01:27:05.512Z,1.2
2023-04-20T01:28:08.794Z,1.2
2023-04-20T01:29:12.080Z,1.2
2023-04-20T01:30:14.622Z,1.3
2023-04-20T01:31:17.963Z,1.3
2023-04-20T01:32:21.209Z,1.1
2023-04-20T01:34:27.791Z,1.1
2023-04-20T01:35:31.074Z,1.2
2023-04-20T01:36:34.378Z,1.2
2023-04-20T01:37:37.666Z,1.2
2023-04-20T01:38:39.981Z,1.2
2023-04-20T01:39:42.271Z,1.1
2023-04-20T01:40:45.578Z,1
2023-04-20T01:41:47.930Z,1.3
2023-04-20T01:42:50.185Z,1.2
2023-04-20T01:43:53.478Z,1.3
2023-04-20T01:44:56.786Z,1.1
2023-04-20T01:46:00.092Z,1.3
2023-04-20T01:47:03.390Z,1.2
2023-04-20T01:48:06.649Z,1.2
2023-04-20T01:49:09.930Z,1.2
2023-04-20T01:50:13.239Z,1.2
2023-04-20T01:51:16.526Z,1.2
2023-04-20T01:52:19.831Z,1.2
2023-04-20T01:53:23.115Z,1.3
2023-04-20T01:54:26.404Z,1.3
2023-04-20T01:55:29.684Z,1.2
2023-04-20T01:56:32.011Z,1.1
2023-04-20T01:57:35.302Z,1.2
2023-04-20T01:58:37.610Z,1.3
2023-04-20T01:59:40.907Z,1.2
2023-04-20T02:00:44.194Z,1.2
2023-04-20T02:01:47.506Z,1.4
2023-04-20T02:02:50.786Z,1.2
2023-04-20T02:03:53.095Z,1.2
2023-04-20T02:04:55.408Z,1
2023-04-20T02:05:57.718Z,1.4
2023-04-20T02:07:00.005Z,1.3
2023-04-20T02:08:03.309Z,1.1
2023-04-20T02:09:06.596Z,1.2
2023-04-20T02:10:09.894Z,1.1
2023-04-20T02:11:13.195Z,1
2023-04-20T02:12:16.481Z,1
2023-04-20T02:13:19.770Z,1.2
2023-04-20T02:14:23.081Z,1.3
2023-04-20T02:15:26.362Z,1.2
2023-04-20T02:16:29.644Z,1.1
2023-04-20T02:17:32.931Z,1.1
2023-04-20T02:18:36.225Z,1.3
2023-04-20T02:19:39.534Z,1.3
2023-04-20T02:20:41.850Z,1.3
2023-04-20T02:21:45.136Z,1
2023-04-20T02:22:48.412Z,1.2
2023-04-20T02:23:51.705Z,1.2
2023-04-20T02:24:54.992Z,1.3
2023-04-20T02:25:58.279Z,1.3
2023-04-20T02:27:01.589Z,1.1
2023-04-20T02:28:03.898Z,1.2
2023-04-20T02:29:06.200Z,0.9
2023-04-20T02:30:09.500Z,1.4
2023-04-20T02:31:12.777Z,1
2023-04-20T02:32:16.097Z,1
2023-04-20T02:33:19.377Z,1.3
2023-04-20T02:34:22.662Z,0.9
2023-04-20T02:35:25.954Z,1.3
2023-04-20T02:36:29.255Z,1.1
2023-04-20T02:37:32.536Z,1.2
2023-04-20T02:38:35.828Z,1.2
2023-04-20T02:39:39.144Z,1
2023-04-20T02:40:42.415Z,1.2
2023-04-20T02:41:45.702Z,1.2
2023-04-20T02:42:48.009Z,1.7
2023-04-20T02:44:54.612Z,1.2
2023-04-20T02:45:57.957Z,1.3
2023-04-20T02:47:01.185Z,1.4
2023-04-20T02:48:04.468Z,1.2
2023-04-20T02:49:07.771Z,1.3
2023-04-20T02:50:11.058Z,1.2
2023-04-20T02:51:13.374Z,1.3
2023-04-20T02:52:15.669Z,1.2
2023-04-20T02:53:18.003Z,1.4
2023-04-20T02:54:20.299Z,1.1
2023-04-20T02:55:22.607Z,1.2
2023-04-20T02:56:24.915Z,1.4
2023-04-20T02:57:28.217Z,1.2
2023-04-20T02:58:31.512Z,1.2
2023-04-20T02:59:34.813Z,1.2
2023-04-20T03:00:38.086Z,1.4
2023-04-20T03:01:41.388Z,1.1
2023-04-20T03:02:44.674Z,1.3
2023-04-20T03:03:47.980Z,1.4
2023-04-20T03:04:51.318Z,1.3
2023-04-20T03:05:54.566Z,1.2
2023-04-20T03:06:57.846Z,1.7
2023-04-20T03:08:01.141Z,1.2
2023-04-20T03:09:04.421Z,1.2
2023-04-20T03:10:06.749Z,1.2
2023-04-20T03:11:10.065Z,1.2
2023-04-20T03:12:13.337Z,1.2
2023-04-20T03:13:16.617Z,1.4
2023-04-20T03:14:19.923Z,1.1
2023-04-20T03:15:23.214Z,1.3
2023-04-20T03:16:26.486Z,1.2
2023-04-20T03:17:28.804Z,1.2
2023-04-20T03:18:32.213Z,1.2
2023-04-20T03:19:35.506Z,1.2
2023-04-20T03:20:37.817Z,1.2
2023-04-20T03:21:40.132Z,1.5
2023-04-20T03:22:43.427Z,1.2
2023-04-20T03:23:46.704Z,1.3
2023-04-20T03:24:49.995Z,1.3
2023-04-20T03:25:53.317Z,1.2
2023-04-20T03:26:56.621Z,1.4
2023-04-20T03:27:59.883Z,1.5
2023-04-20T03:29:03.165Z,1.2
2023-04-20T03:30:06.486Z,1.2
2023-04-20T03:31:09.797Z,1.2
2023-04-20T03:32:13.052Z,1.6
2023-04-20T03:33:16.355Z,1.1
2023-04-20T03:34:19.627Z,1.4
2023-04-20T03:35:21.933Z,1.3
2023-04-20T03:36:25.220Z,1.2
2023-04-20T03:37:28.522Z,1.3
2023-04-20T03:38:31.797Z,1.3
2023-04-20T03:39:35.110Z,1.3
2023-04-20T03:40:38.404Z,1.2
2023-04-20T03:41:41.701Z,1.1
2023-04-20T03:42:43.999Z,1.2
2023-04-20T03:43:46.306Z,1.5
2023-04-20T03:44:48.614Z,1.3
2023-04-20T03:45:50.941Z,1.3
2023-04-20T03:46:54.224Z,1.2
2023-04-20T03:47:57.507Z,1.2
2023-04-20T03:49:00.791Z,1.4
2023-04-20T03:50:04.095Z,1.3
2023-04-20T03:51:07.404Z,1.4
2023-04-20T03:52:10.670Z,1.2
2023-04-20T03:53:13.959Z,1.3
2023-04-20T03:54:17.252Z,1.6
2023-04-20T03:55:20.556Z,1.2
2023-04-20T03:56:23.847Z,1.4
2023-04-20T03:57:27.191Z,1.2
2023-04-20T03:58:30.425Z,1.2
2023-04-20T03:59:32.742Z,1.1
2023-04-20T04:00:36.021Z,1.3
2023-04-20T04:01:39.318Z,1.5
2023-04-20T04:02:42.608Z,1.1
2023-04-20T04:03:45.925Z,1.2
2023-04-20T04:05:52.496Z,1.2
2023-04-20T04:06:55.783Z,1.3
2023-04-20T04:07:58.094Z,1.2
2023-04-20T04:09:00.409Z,1.1
2023-04-20T04:10:03.693Z,1.1
2023-04-20T04:11:06.995Z,1
2023-04-20T04:12:10.295Z,1.2
2023-04-20T04:13:13.571Z,1.2
2023-04-20T04:14:16.859Z,1.3
2023-04-20T04:15:20.164Z,1.1
2023-04-20T04:16:23.439Z,1.1
2023-04-20T04:17:26.793Z,1.2
2023-04-20T04:18:30.028Z,1.1
2023-04-20T04:19:33.322Z,1.1
2023-04-20T04:20:36.610Z,1.1
2023-04-20T04:21:39.914Z,1
2023-04-20T04:22:42.213Z,1.7
2023-04-20T04:24:48.808Z,1.1
2023-04-20T04:25:52.086Z,0.9
2023-04-20T04:26:55.399Z,1.2
2023-04-20T04:27:58.665Z,1
2023-04-20T04:29:01.950Z,1.1
2023-04-20T04:30:05.326Z,1.1
2023-04-20T04:31:07.573Z,1.2
2023-04-20T04:32:09.871Z,1.1
2023-04-20T04:33:12.197Z,1
2023-04-20T04:34:14.492Z,1.1
2023-04-20T04:35:17.793Z,1.4
2023-04-20T04:36:21.091Z,0.9
2023-04-20T04:37:24.415Z,0.9
2023-04-20T04:38:27.675Z,1.2
2023-04-20T04:39:30.986Z,1.1
2023-04-20T04:40:34.254Z,1.1
2023-04-20T04:41:37.555Z,1.2
2023-04-20T04:42:40.831Z,1.1
2023-04-20T04:43:44.122Z,1
2023-04-20T04:44:47.439Z,1.5
2023-04-20T04:45:50.718Z,1.2
2023-04-20T04:46:54.002Z,1.2
2023-04-20T04:47:56.312Z,1.2
2023-04-20T04:48:59.592Z,1.2
2023-04-20T04:50:02.909Z,1.1
2023-04-20T04:51:06.191Z,2.2
2023-04-20T04:52:09.484Z,1.2
2023-04-20T04:53:13.065Z,0.9
2023-04-20T04:54:16.281Z,1.1
2023-04-20T04:55:18.662Z,1.1
2023-04-20T04:56:20.898Z,1.3
2023-04-20T04:57:23.214Z,1.2
2023-04-20T04:58:25.518Z,1.2
2023-04-20T04:59:28.817Z,1.3
2023-04-20T05:00:32.107Z,1.3
2023-04-20T05:01:35.414Z,1.1
2023-04-20T05:02:38.693Z,1.1
2023-04-20T05:03:41.995Z,1.1
2023-04-20T05:04:45.319Z,1.2
2023-04-20T05:05:48.558Z,1.3
2023-04-20T05:06:51.860Z,1.3
2023-04-20T05:07:55.154Z,1.1
2023-04-20T05:08:58.449Z,1.1
2023-04-20T05:10:01.747Z,1
2023-04-20T05:11:05.032Z,1.1
2023-04-20T05:12:07.347Z,1.2
2023-04-20T05:13:10.665Z,1.3
2023-04-20T05:14:13.923Z,1
2023-04-20T05:15:17.215Z,1.2
2023-04-20T05:16:20.515Z,1.2
2023-04-20T05:17:23.779Z,1
2023-04-20T05:18:27.085Z,1.2
2023-04-20T05:19:29.388Z,1.1
2023-04-20T05:21:35.013Z,1.1
2023-04-20T05:22:38.287Z,1.1
2023-04-20T05:23:40.588Z,1.2
2023-04-20T05:24:42.912Z,1
2023-04-20T05:25:46.253Z,1
2023-04-20T05:26:49.491Z,1
2023-04-20T05:27:52.776Z,1.2
2023-04-20T05:28:56.077Z,1.6
2023-04-20T05:29:58.386Z,1.1
2023-04-20T05:31:01.675Z,1.4
2023-04-20T05:32:04.997Z,0.9
2023-04-20T05:33:08.253Z,1.1
2023-04-20T05:34:11.546Z,1.1
2023-04-20T05:35:14.845Z,1
2023-04-20T05:36:18.135Z,1.1
2023-04-20T05:37:21.428Z,1.1
2023-04-20T05:38:24.707Z,1.2
2023-04-20T05:40:31.322Z,1
2023-04-20T05:41:34.607Z,1.2
2023-04-20T05:42:37.896Z,1.2
2023-04-20T05:43:40.185Z,1.1
2023-04-20T05:44:43.529Z,1.4
2023-04-20T05:45:46.774Z,1.2
2023-04-20T05:46:49.169Z,1.2
2023-04-20T05:47:51.411Z,1.3
2023-04-20T05:48:53.710Z,1.6
2023-04-20T05:49:56.034Z,3.1
2023-04-20T05:50:59.327Z,2
2023-04-20T05:52:02.639Z,1.9
2023-04-20T05:53:05.888Z,1.1
2023-04-20T05:54:09.167Z,1.7
2023-04-20T05:55:12.483Z,1.1
2023-04-20T05:56:15.766Z,1
2023-04-20T05:57:19.499Z,1.2
2023-04-20T05:58:22.756Z,1.2
2023-04-20T05:59:26.095Z,2.09
2023-04-20T06:00:29.467Z,1.3
2023-04-20T06:01:32.592Z,1.1
2023-04-20T06:02:35.857Z,2
2023-04-20T06:03:38.177Z,1.4
2023-04-20T06:04:41.465Z,1.3
2023-04-20T06:05:44.776Z,0.9
2023-04-20T06:06:48.033Z,1.3
2023-04-20T06:07:51.341Z,1.1
2023-04-20T06:08:54.634Z,1.2
2023-04-20T06:09:58.019Z,1.5
2023-04-20T06:11:00.267Z,1
2023-04-20T06:12:02.627Z,1.9
2023-04-20T06:13:04.854Z,1.3
2023-04-20T06:14:07.172Z,1.2
2023-04-20T06:15:10.483Z,1.3
2023-04-20T06:16:13.752Z,1.2
2023-04-20T06:17:17.130Z,1.3
2023-04-20T06:18:20.352Z,1.5
2023-04-20T06:19:23.636Z,1.3
2023-04-20T06:20:26.909Z,1
2023-04-20T06:21:30.212Z,1.3
2023-04-20T06:22:33.517Z,1.2
2023-04-20T06:23:36.799Z,1.3
2023-04-20T06:24:40.078Z,1.3
2023-04-20T06:25:43.444Z,1.2
2023-04-20T06:26:46.716Z,1.2
2023-04-20T06:27:48.968Z,2.2
2023-04-20T06:28:52.277Z,1.3
2023-04-20T06:29:55.559Z,0.9
2023-04-20T06:30:58.860Z,1.3
2023-04-20T06:32:02.217Z,1.2
2023-04-20T06:33:05.473Z,1.1
2023-04-20T06:34:08.758Z,1.3
2023-04-20T06:35:11.063Z,1
2023-04-20T06:36:14.337Z,1.7
2023-04-20T06:37:16.743Z,1.2
2023-04-20T06:38:19.127Z,1.2
2023-04-20T06:39:22.343Z,1.2
2023-04-20T06:40:25.643Z,1.2
2023-04-20T06:41:28.946Z,1.3
2023-04-20T06:42:32.217Z,1.3
2023-04-20T06:43:35.535Z,2.2
2023-04-20T06:44:38.828Z,1.3
2023-04-20T06:45:42.128Z,1.3
2023-04-20T06:46:45.432Z,1.5
2023-04-20T06:47:48.690Z,1.1
2023-04-20T06:48:51.989Z,1.2
2023-04-20T06:49:55.280Z,1.2
2023-04-20T06:50:58.568Z,1.3
2023-04-20T06:52:00.869Z,1.2
2023-04-20T06:53:04.217Z,1.3
2023-04-20T06:54:07.496Z,1.2
2023-04-20T06:55:10.748Z,1.3
2023-04-20T06:56:14.040Z,1.4
2023-04-20T06:57:17.348Z,1.3
2023-04-20T06:58:20.647Z,1.4
2023-04-20T06:59:22.950Z,1.3
2023-04-20T07:00:25.248Z,1
2023-04-20T07:01:27.567Z,1.3
2023-04-20T07:02:29.876Z,1.6
2023-04-20T07:03:33.155Z,2.2
2023-04-20T07:04:36.450Z,1.2
2023-04-20T07:05:39.754Z,2.5
2023-04-20T07:07:46.381Z,5.7
2023-04-20T07:08:49.659Z,2.5
2023-04-20T07:09:52.930Z,2.4
2023-04-20T07:10:56.200Z,3.9
2023-04-20T07:11:59.487Z,1.3
2023-04-20T07:13:02.786Z,1.4
2023-04-20T07:14:06.069Z,2.2
2023-04-20T07:15:09.378Z,1.3
2023-04-20T07:16:11.688Z,1.4
2023-04-20T07:17:15.013Z,1.3
2023-04-20T07:18:18.275Z,1.7
2023-04-20T07:19:21.711Z,2.3
2023-04-20T07:20:24.902Z,2.2
2023-04-20T07:21:28.147Z,3
2023-04-20T07:22:31.440Z,1.7
2023-04-20T07:23:34.714Z,1.5
2023-04-20T07:24:37.036Z,1.3
2023-04-20T07:25:39.375Z,2.09
2023-04-20T07:26:42.645Z,2.4
2023-04-20T07:27:44.987Z,8
2023-04-20T07:28:47.246Z,5
2023-04-20T07:29:50.546Z,3
2023-04-20T07:30:53.851Z,2.9
2023-04-20T07:31:57.144Z,4.19
2023-04-20T07:33:00.426Z,3.9
2023-04-20T07:34:03.707Z,3.7
2023-04-20T07:35:07.022Z,11.1
2023-04-20T07:36:10.306Z,18.7
2023-04-20T07:37:14.228Z,15.6
2023-04-20T07:38:17.524Z,14
2023-04-20T07:39:20.819Z,32.4
2023-04-20T07:40:24.150Z,26.7
2023-04-20T07:41:27.385Z,15.6
2023-04-20T07:42:29.684Z,19.1
2023-04-20T07:43:32.994Z,19.4
2023-04-20T07:44:36.283Z,13.3
2023-04-20T07:45:39.574Z,10.6
2023-04-20T07:46:42.889Z,8.39
2023-04-20T07:47:46.169Z,8.3
2023-04-20T07:48:49.451Z,6.5
2023-04-20T07:49:51.834Z,8.3
2023-04-20T07:50:54.067Z,10.2
2023-04-20T07:51:56.373Z,4.9
2023-04-20T07:52:58.703Z,8.6
2023-04-20T07:54:02.040Z,6
2023-04-20T07:55:05.334Z,5
2023-04-20T07:56:08.620Z,9.5
2023-04-20T07:57:11.850Z,9
2023-04-20T07:58:15.240Z,4.5
2023-04-20T07:59:18.425Z,4.8
2023-04-20T08:00:21.774Z,4
2023-04-20T08:01:25.027Z,5.7
2023-04-20T08:02:28.405Z,8.3
2023-04-20T08:03:31.616Z,3.6
2023-04-20T08:04:34.949Z,5.9
2023-04-20T08:05:38.232Z,2.5
2023-04-20T08:06:40.505Z,5
2023-04-20T08:07:43.781Z,5.3
2023-04-20T08:08:47.080Z,3.9
2023-04-20T08:09:50.367Z,2.4
2023-04-20T08:10:53.651Z,3.3
2023-04-20T08:11:56.968Z,2.09
2023-04-20T08:13:00.241Z,2.8
2023-04-20T08:14:02.574Z,2.09
2023-04-20T08:15:04.979Z,2.09
2023-04-20T08:16:07.381Z,2.8
2023-04-20T08:17:09.647Z,2.4
2023-04-20T08:18:12.817Z,1.5
2023-04-20T08:19:16.133Z,2
2023-04-20T08:20:19.550Z,3.8
2023-04-20T08:21:22.662Z,1.3
2023-04-20T08:22:26.079Z,1.5
2023-04-20T08:23:29.330Z,2.8
2023-04-20T08:24:32.763Z,1.5
2023-04-20T08:25:35.994Z,2.9
2023-04-20T08:26:39.254Z,2.2
2023-04-20T08:27:42.590Z,1.9
2023-04-20T08:28:45.876Z,1.4
2023-04-20T08:29:49.156Z,1.6
2023-04-20T08:30:51.411Z,2
2023-04-20T08:31:54.789Z,2.2
2023-04-20T08:32:57.888Z,1.9
2023-04-20T08:34:01.363Z,1.5
2023-04-20T08:35:04.469Z,1.2
2023-04-20T08:36:07.752Z,2.3
2023-04-20T08:37:11.067Z,2.7
2023-04-20T08:38:13.380Z,1.4
2023-04-20T08:39:15.661Z,1.9
2023-04-20T08:40:17.987Z,2.5
2023-04-20T08:41:20.305Z,1.5
2023-04-20T08:42:23.592Z,1.1
2023-04-20T08:43:26.877Z,1.4
2023-04-20T08:44:30.159Z,1.3
2023-04-20T08:45:33.451Z,1.7
2023-04-20T08:46:36.767Z,1.7
2023-04-20T08:47:40.037Z,1.6
2023-04-20T08:48:43.342Z,1.1
2023-04-20T08:49:46.626Z,1.2
2023-04-20T08:50:49.921Z,1.8
2023-04-20T08:51:53.215Z,1.5
2023-04-20T08:52:56.515Z,1.9
2023-04-20T08:53:59.807Z,1.4
2023-04-20T08:55:02.102Z,1.3
2023-04-20T08:56:05.392Z,1.2
2023-04-20T08:57:08.695Z,1.2
2023-04-20T08:58:11.980Z,1.2
2023-04-20T08:59:15.281Z,1.2
2023-04-20T09:00:18.580Z,1.2
2023-04-20T09:01:20.869Z,1.5
2023-04-20T09:02:23.195Z,1.3
2023-04-20T09:03:25.483Z,2.3
2023-04-20T09:04:27.826Z,1.4
2023-04-20T09:05:30.106Z,1.3
2023-04-20T09:06:33.400Z,1.4
2023-04-20T09:07:36.710Z,1.5
2023-04-20T09:08:39.987Z,1.4
2023-04-20T09:09:43.298Z,1.4
2023-04-20T09:10:46.581Z,2.09
2023-04-20T09:11:49.868Z,1.7
2023-04-20T09:12:53.149Z,1.5
2023-04-20T09:13:56.439Z,2.3
2023-04-20T09:14:59.745Z,2.09
2023-04-20T09:16:03.029Z,1.5
2023-04-20T09:17:06.329Z,1.3
2023-04-20T09:18:09.606Z,1.4
2023-04-20T09:19:11.939Z,1.8
2023-04-20T09:20:15.218Z,1.3
2023-04-20T09:21:18.512Z,1.4
2023-04-20T09:22:21.792Z,1.4
2023-04-20T09:23:25.103Z,1.6
2023-04-20T09:24:28.380Z,1.5
2023-04-20T09:25:31.680Z,1.6
2023-04-20T09:26:33.987Z,1.5
2023-04-20T09:27:36.303Z,1.7
2023-04-20T09:28:39.608Z,1.5
2023-04-20T09:29:42.896Z,1.6
2023-04-20T09:30:46.177Z,1.5
2023-04-20T09:31:49.467Z,1.4
2023-04-20T09:32:52.754Z,1.5
2023-04-20T09:33:56.045Z,1.6
2023-04-20T09:34:59.365Z,1.6
2023-04-20T09:36:02.635Z,1.5
2023-04-20T09:37:05.918Z,1.6
2023-04-20T09:38:09.212Z,1.7
2023-04-20T09:39:12.513Z,1.9
2023-04-20T09:40:15.815Z,1.6
2023-04-20T09:41:18.104Z,1.5
2023-04-20T09:42:21.396Z,1.5
2023-04-20T09:43:24.708Z,1.7
2023-04-20T09:44:27.990Z,1.7
2023-04-20T09:45:31.293Z,1.7
2023-04-20T09:46:34.562Z,1.6
2023-04-20T09:47:37.873Z,2.2
2023-04-20T09:48:40.227Z,1.7
2023-04-20T09:49:42.477Z,2
2023-04-20T09:50:44.791Z,1.7
2023-04-20T09:51:47.090Z,1.6
2023-04-20T09:52:50.388Z,2
2023-04-20T09:53:52.708Z,2.3
2023-04-20T09:54:55.016Z,1.8
2023-04-20T09:55:58.321Z,1.7
2023-04-20T09:57:01.599Z,1.7
2023-04-20T09:58:04.890Z,1.9
2023-04-20T09:59:08.191Z,1.8
2023-04-20T10:00:11.467Z,1.9
2023-04-20T10:01:14.872Z,2.2
2023-04-20T10:02:18.177Z,2.09
2023-04-20T10:03:21.479Z,1.9
2023-04-20T10:04:24.760Z,2.09
2023-04-20T10:05:28.052Z,1.7
2023-04-20T10:06:31.338Z,1.9
2023-04-20T10:07:34.635Z,1.9
2023-04-20T10:08:36.945Z,2.09
2023-04-20T10:09:40.228Z,1.7
2023-04-20T10:10:43.526Z,2
2023-04-20T10:11:46.819Z,1.9
2023-04-20T10:12:50.110Z,1.9
2023-04-20T10:13:53.404Z,1.7
2023-04-20T10:14:56.682Z,1.8
2023-04-20T10:15:59.008Z,1.8
2023-04-20T10:17:01.315Z,1.8
2023-04-20T10:18:03.660Z,1.8
2023-04-20T10:19:05.932Z,1.7
2023-04-20T10:20:09.227Z,2
2023-04-20T10:21:12.517Z,1.7
2023-04-20T10:22:15.802Z,1.7
2023-04-20T10:23:19.125Z,1.6
2023-04-20T10:24:22.404Z,1.6
2023-04-20T10:25:25.727Z,2
2023-04-20T10:26:29.004Z,1.7
2023-04-20T10:27:32.258Z,1.8
2023-04-20T10:28:35.575Z,1.7
2023-04-20T10:29:38.879Z,1.6
2023-04-20T10:30:42.136Z,1.7
2023-04-20T10:31:45.431Z,1.7
2023-04-20T10:32:47.739Z,2.09
2023-04-20T10:33:51.037Z,1.6
2023-04-20T10:34:54.335Z,1.5
2023-04-20T10:35:57.599Z,1.8
2023-04-20T10:37:00.910Z,1.8
2023-04-20T10:38:04.192Z,1.6
2023-04-20T10:39:07.500Z,1.6
2023-04-20T10:40:09.822Z,1.9
2023-04-20T10:41:12.123Z,1.8
2023-04-20T10:42:15.436Z,1.7
2023-04-20T10:43:18.700Z,1.6
2023-04-20T10:44:22.004Z,1.6
2023-04-20T10:45:25.286Z,1.6
2023-04-20T10:46:28.600Z,1.6
2023-04-20T10:47:31.858Z,1.8
2023-04-20T10:48:35.191Z,2
2023-04-20T10:49:38.450Z,1.7
2023-04-20T10:50:41.742Z,1.8
2023-04-20T10:51:45.044Z,1.8
2023-04-20T10:52:48.348Z,1.6
2023-04-20T10:53:51.613Z,1.6
2023-04-20T10:54:53.930Z,1.6
2023-04-20T10:55:57.213Z,1.6
2023-04-20T10:57:00.505Z,2.09
2023-04-20T10:58:03.858Z,1.6
2023-04-20T10:59:07.103Z,1.5
2023-04-20T11:00:10.392Z,1.4
2023-04-20T11:01:13.685Z,1.4
2023-04-20T11:02:15.978Z,1.6
2023-04-20T11:03:18.305Z,1.8
2023-04-20T11:04:20.626Z,1.9
2023-04-20T11:05:22.922Z,1.4
2023-04-20T11:06:25.271Z,1.3
2023-04-20T11:07:27.528Z,1.5
2023-04-20T11:08:30.836Z,1.4
2023-04-20T11:09:34.142Z,1.6
2023-04-20T11:10:37.423Z,1.4
2023-04-20T11:11:40.715Z,1.7
2023-04-20T11:12:44.025Z,1.5
2023-04-20T11:13:47.301Z,1.4
2023-04-20T11:14:50.601Z,1.6
2023-04-20T11:15:53.867Z,1.5
2023-04-20T11:16:57.164Z,1.6
2023-04-20T11:18:00.469Z,1.8
2023-04-20T11:19:03.760Z,1.7
2023-04-20T11:20:07.077Z,2.4
2023-04-20T11:21:09.350Z,1.7
2023-04-20T11:22:12.640Z,1.5
2023-04-20T11:24:19.217Z,1.6
2023-04-20T11:25:22.517Z,1.9
2023-04-20T11:26:25.832Z,1.4
2023-04-20T11:27:29.108Z,1.6
2023-04-20T11:28:32.384Z,1.6
2023-04-20T11:29:34.721Z,1.6
2023-04-20T11:30:37.110Z,1.6
2023-04-20T11:31:40.319Z,1.7
2023-04-20T11:32:42.612Z,1.7
2023-04-20T11:33:44.914Z,1.6
2023-04-20T11:34:48.227Z,1.6
2023-04-20T11:35:51.524Z,1.7
2023-04-20T11:36:54.807Z,1.8
2023-04-20T11:37:58.097Z,1.5
2023-04-20T11:39:01.395Z,1.6
2023-04-20T11:40:04.679Z,1.7
2023-04-20T11:41:07.977Z,1.5
2023-04-20T11:42:11.254Z,1.6
2023-04-20T11:43:14.652Z,1.6
2023-04-20T11:44:17.850Z,1.5
2023-04-20T11:45:21.937Z,1.6
2023-04-20T11:46:25.046Z,1.8
2023-04-20T11:47:27.309Z,1.9
2023-04-20T11:48:30.604Z,1.5
2023-04-20T11:49:33.955Z,1.4
2023-04-20T11:50:37.166Z,1.6
2023-04-20T11:51:40.501Z,2.2
2023-04-20T11:52:43.780Z,1.6
2023-04-20T11:53:47.076Z,1.6
2023-04-20T11:54:50.500Z,1.7
2023-04-20T11:55:52.821Z,1.8
2023-04-20T11:56:55.111Z,2
2023-04-20T11:57:57.548Z,1.6
2023-04-20T11:59:00.764Z,1.7
2023-04-20T12:00:03.999Z,1.6
2023-04-20T12:01:07.285Z,1.8
2023-04-20T12:02:10.584Z,1.6
2023-04-20T12:03:13.873Z,1.9
2023-04-20T12:04:17.206Z,1.6
2023-04-20T12:05:20.495Z,1.6
2023-04-20T12:06:23.858Z,1.6
2023-04-20T12:07:27.053Z,1.7
2023-04-20T12:08:30.352Z,1.7
2023-04-20T12:09:33.645Z,1.6
2023-04-20T12:10:38.412Z,1.7
2023-04-20T12:11:39.229Z,1.7
2023-04-20T12:12:42.520Z,1.6
2023-04-20T12:13:45.811Z,1.7
2023-04-20T12:14:49.130Z,1.7
2023-04-20T12:15:52.530Z,1.8
2023-04-20T12:16:55.766Z,1.5
2023-04-20T12:17:58.985Z,1.6
2023-04-20T12:19:01.392Z,1.7
2023-04-20T12:20:03.696Z,1.6
2023-04-20T12:21:05.984Z,1.8
2023-04-20T12:22:08.383Z,1.7
2023-04-20T12:23:11.567Z,1.5
2023-04-20T12:24:14.892Z,1.6
2023-04-20T12:25:18.212Z,1.9
2023-04-20T12:26:21.821Z,1.7
2023-04-20T12:27:25.082Z,1.7
2023-04-20T12:28:28.362Z,1.9
2023-04-20T12:29:31.781Z,1.8
2023-04-20T12:30:34.971Z,1.7
2023-04-20T12:31:38.234Z,1.5
2023-04-20T12:32:40.632Z,1.5
2023-04-20T12:33:43.845Z,1.6
2023-04-20T12:34:47.203Z,1.6
2023-04-20T12:35:50.464Z,1.7
2023-04-20T12:36:53.721Z,1.7
2023-04-20T12:37:57.015Z,1.8
2023-04-20T12:39:00.300Z,1.8
2023-04-20T12:40:03.587Z,1.7
2023-04-20T12:41:06.916Z,1.7
2023-04-20T12:42:10.190Z,1.8
2023-04-20T12:43:12.496Z,2
2023-04-20T12:44:14.816Z,1.6
2023-04-20T12:45:17.148Z,1.7
2023-04-20T12:46:19.421Z,1.6
2023-04-20T12:47:22.729Z,1.8
2023-04-20T12:48:26.025Z,1.9
2023-04-20T12:49:29.297Z,1.6
2023-04-20T12:50:32.616Z,1.7
2023-04-20T12:51:35.883Z,1.7
2023-04-20T12:52:39.172Z,1.7
2023-04-20T12:53:42.680Z,1.8
2023-04-20T12:54:45.763Z,1.8
2023-04-20T12:55:49.088Z,2.09
2023-04-20T12:56:52.357Z,1.6
2023-04-20T12:57:55.634Z,1.7
2023-04-20T12:58:58.966Z,1.7
2023-04-20T13:00:01.321Z,1.8
2023-04-20T13:01:04.796Z,2
2023-04-20T13:02:07.855Z,1.9
2023-04-20T13:03:11.121Z,1.8
2023-04-20T13:04:14.410Z,1.7
2023-04-20T13:05:17.700Z,1.5
2023-04-20T13:06:20.997Z,1.6
2023-04-20T13:09:29.901Z,1.7
2023-04-20T13:10:32.186Z,1.5
2023-04-20T13:11:34.531Z,1.8
2023-04-20T13:12:36.819Z,2
2023-04-20T13:13:39.130Z,1.5
2023-04-20T13:14:42.419Z,1.6
2023-04-20T13:15:45.804Z,1.6
2023-04-20T13:16:48.992Z,1.6
2023-04-20T13:17:52.302Z,1.7
2023-04-20T13:18:55.716Z,1.5
2023-04-20T13:19:59.072Z,1.6
2023-04-20T13:21:02.261Z,2.3
2023-04-20T13:22:05.514Z,1.6
2023-04-20T13:23:08.877Z,1.6
2023-04-20T13:24:12.101Z,1.6
2023-04-20T13:25:15.386Z,1.6
2023-04-20T13:26:18.728Z,1.6
2023-04-20T13:27:22.374Z,1.6
2023-04-20T13:28:24.665Z,1.6
2023-04-20T13:29:27.851Z,1.6
2023-04-20T13:30:31.276Z,1.6
2023-04-20T13:31:34.552Z,1.7
2023-04-20T13:32:37.727Z,1.6
2023-04-20T13:33:41.117Z,1.7
2023-04-20T13:34:43.372Z,1.8
2023-04-20T13:35:45.641Z,1.7
2023-04-20T13:36:48.022Z,1.5
2023-04-20T13:37:50.243Z,1.8
2023-04-20T13:38:53.543Z,1.7
2023-04-20T13:39:56.857Z,1.9
2023-04-20T13:41:00.127Z,2.5
2023-04-20T13:42:03.456Z,1.5
2023-04-20T13:43:06.806Z,1.7
2023-04-20T13:44:09.989Z,1.5
2023-04-20T13:45:13.410Z,1.6
2023-04-20T13:46:16.626Z,1.7
2023-04-20T13:47:19.882Z,2
2023-04-20T13:48:23.190Z,1.6
2023-04-20T13:49:26.458Z,1.6
2023-04-20T13:50:29.765Z,1.6
2023-04-20T13:51:32.136Z,1.4
2023-04-20T13:52:35.405Z,1.6
2023-04-20T13:53:38.704Z,2
2023-04-20T13:54:42.028Z,1.6
2023-04-20T13:55:45.248Z,1.6
2023-04-20T13:56:48.521Z,1.9
2023-04-20T13:57:51.825Z,3.4
2023-04-20T13:58:54.229Z,1.5
2023-04-20T13:59:56.456Z,1.5
2023-04-20T14:00:59.714Z,1.6
2023-04-20T14:02:02.030Z,1.8
2023-04-20T14:03:04.353Z,2
2023-04-20T14:04:07.741Z,1.3
2023-04-20T14:05:10.950Z,1.4
2023-04-20T14:06:14.240Z,1.6
2023-04-20T14:07:17.522Z,1.5
2023-04-20T14:08:20.880Z,1.4
2023-04-20T14:09:24.185Z,1.6
2023-04-20T14:10:27.417Z,1.5
2023-04-20T14:11:30.720Z,1.5
2023-04-20T14:12:33.975Z,1.6
2023-04-20T14:13:37.292Z,1.6
2023-04-20T14:14:40.564Z,1.5
2023-04-20T14:15:43.915Z,2.09
2023-04-20T14:16:46.304Z,1.6
2023-04-20T14:17:49.540Z,1.4
2023-04-20T14:18:52.895Z,1.5
2023-04-20T14:19:56.037Z,1.5
2023-04-20T14:20:59.352Z,1.3
2023-04-20T14:22:02.624Z,1.6
2023-04-20T14:23:05.968Z,1.6
2023-04-20T14:24:08.220Z,1.5
2023-04-20T14:25:10.597Z,1.6
2023-04-20T14:26:12.881Z,1.5
2023-04-20T14:27:15.163Z,1.4
2023-04-20T14:28:18.453Z,1.5
2023-04-20T14:29:21.803Z,1.3
2023-04-20T14:30:25.059Z,1.5
2023-04-20T14:31:28.320Z,1.5
2023-04-20T14:32:31.649Z,1.5
2023-04-20T14:33:34.964Z,1.5
2023-04-20T14:34:38.310Z,1.5
2023-04-20T14:35:41.629Z,1.4
2023-04-20T14:36:44.767Z,1.3
2023-04-20T14:37:48.080Z,1.3
2023-04-20T14:38:51.373Z,1.3
2023-04-20T14:39:54.725Z,1.2
2023-04-20T14:40:56.997Z,1.5
2023-04-20T14:42:00.407Z,1.4